createdAt,value
2018-10-02T00:02:52.934Z,2.20
2018-10-02T00:07:56.456Z,2.13
2018-10-02T00:13:05.463Z,1.90
2018-10-02T00:18:09.303Z,2.60
2018-10-02T00:23:12.934Z,2.03
2018-10-02T00:28:16.441Z,2.60
2018-10-02T00:33:19.938Z,2.63
2018-10-02T00:38:23.389Z,2.33
2018-10-02T00:43:26.752Z,2.40
2018-10-02T00:48:30.166Z,2.37
2018-10-02T00:53:33.620Z,1.97
2018-10-02T00:58:37.010Z,2.17
2018-10-02T01:03:40.538Z,2.63
2018-10-02T01:08:44.100Z,2.40
2018-10-02T01:13:47.562Z,2.57
2018-10-02T01:18:51.040Z,2.30
2018-10-02T01:23:54.894Z,2.73
2018-10-02T01:28:58.535Z,2.53
2018-10-02T01:34:02.151Z,2.50
2018-10-02T01:39:06.824Z,3.03
2018-10-02T01:44:10.320Z,2.60
2018-10-02T01:49:13.817Z,2.70
2018-10-02T01:54:18.064Z,2.30
2018-10-02T01:59:21.675Z,2.40
2018-10-02T02:04:25.290Z,3.00
2018-10-02T02:09:28.812Z,2.30
2018-10-02T02:14:32.151Z,2.53
2018-10-02T02:19:35.525Z,2.53
2018-10-02T02:24:38.950Z,2.83
2018-10-02T02:29:42.422Z,2.30
2018-10-02T02:34:50.382Z,2.50
2018-10-02T02:39:54.077Z,3.13
2018-10-02T02:44:57.487Z,2.80
2018-10-02T02:50:10.909Z,2.90
2018-10-02T02:55:14.583Z,2.83
2018-10-02T03:00:18.117Z,2.70
2018-10-02T03:05:21.483Z,2.70
2018-10-02T03:10:24.891Z,3.10
2018-10-02T03:15:28.604Z,2.70
2018-10-02T03:20:31.986Z,2.90
2018-10-02T03:25:35.386Z,3.10
2018-10-02T03:30:38.777Z,3.00
2018-10-02T03:35:42.209Z,3.27
2018-10-02T03:40:45.628Z,3.20
2018-10-02T03:45:49.155Z,3.23
2018-10-02T03:50:52.677Z,3.47
2018-10-02T03:55:56.118Z,3.30
2018-10-02T04:00:59.505Z,2.67
2018-10-02T04:06:02.953Z,3.93
2018-10-02T04:11:06.773Z,3.73
2018-10-02T04:16:10.138Z,3.47
2018-10-02T04:21:13.484Z,3.37
2018-10-02T04:26:16.760Z,3.20
2018-10-02T04:31:20.093Z,3.20
2018-10-02T04:36:23.511Z,3.90
2018-10-02T04:41:26.925Z,4.07
2018-10-02T04:46:30.336Z,3.50
2018-10-02T04:51:34.211Z,3.13
2018-10-02T04:56:37.830Z,3.70
2018-10-02T05:01:41.153Z,2.87
2018-10-02T05:06:44.705Z,3.40
2018-10-02T05:11:48.180Z,4.30
2018-10-02T05:16:51.702Z,4.40
2018-10-02T05:21:55.127Z,3.53
2018-10-02T05:26:58.509Z,3.20
2018-10-02T05:32:02.807Z,3.80
2018-10-02T05:37:06.266Z,4.17
2018-10-02T05:42:10.048Z,3.47
2018-10-02T05:47:13.439Z,3.73
2018-10-02T05:52:18.140Z,4.20
2018-10-02T05:57:21.900Z,3.93
2018-10-02T06:02:28.426Z,3.37
2018-10-02T06:07:32.678Z,4.47
2018-10-02T06:12:36.044Z,3.53
2018-10-02T06:17:39.420Z,4.00
2018-10-02T06:22:43.059Z,3.50
2018-10-02T06:27:46.533Z,3.13
2018-10-02T06:32:50.291Z,3.57
2018-10-02T06:37:53.657Z,3.87
2018-10-02T06:42:57.148Z,3.40
2018-10-02T06:48:00.722Z,3.27
2018-10-02T06:53:04.639Z,4.27
2018-10-02T06:58:07.975Z,3.50
2018-10-02T07:03:11.440Z,3.97
2018-10-02T07:08:14.831Z,4.90
2018-10-02T07:13:18.384Z,4.37
2018-10-02T07:18:21.780Z,4.63
2018-10-02T07:23:25.164Z,4.03
2018-10-02T07:28:28.580Z,5.07
2018-10-02T07:33:32.674Z,4.53
2018-10-02T08:49:16.886Z,6.90
2018-10-02T08:54:20.277Z,7.13
2018-10-02T11:52:01.480Z,15.75
2018-10-02T11:57:04.893Z,15.53
2018-10-02T12:02:08.448Z,14.43
2018-10-02T12:12:14.646Z,14.25
2018-10-02T12:17:18.056Z,12.20
2018-10-02T12:22:21.598Z,12.20
2018-10-02T12:32:27.889Z,12.67
2018-10-02T12:42:35.999Z,12.20
2018-10-02T12:47:40.692Z,13.93
2018-10-02T12:52:45.664Z,13.70
2018-10-02T12:57:50.477Z,14.97
2018-10-02T13:02:54.881Z,14.10
2018-10-02T13:07:59.376Z,13.80
2018-10-02T13:13:03.634Z,14.87
2018-10-02T13:18:08.636Z,16.27
2018-10-02T13:23:14.095Z,18.87
2018-10-02T13:28:18.503Z,19.60
2018-10-02T13:33:23.775Z,18.20
2018-10-02T13:38:28.408Z,19.67
2018-10-02T13:43:32.484Z,19.07
2018-10-02T13:48:36.639Z,20.97
2018-10-02T13:53:40.035Z,19.80
2018-10-02T13:58:43.504Z,19.70
2018-10-02T14:03:47.068Z,22.37
2018-10-02T14:08:50.535Z,20.77
2018-10-02T14:13:54.004Z,19.37
2018-10-02T14:18:57.501Z,18.43
2018-10-02T14:24:01.091Z,14.60
2018-10-02T14:29:04.500Z,11.80
2018-10-02T14:34:07.847Z,10.70
2018-10-02T14:39:11.782Z,11.00
2018-10-02T14:44:15.233Z,11.77
2018-10-02T14:49:18.723Z,10.87
2018-10-02T14:54:22.306Z,9.70
2018-10-02T15:04:40.114Z,7.87
2018-10-02T15:09:43.624Z,7.10
2018-10-02T15:14:47.074Z,6.53
2018-10-02T15:19:50.503Z,6.57
2018-10-02T15:24:54.937Z,7.10
2018-10-02T15:29:59.652Z,6.13
2018-10-02T15:35:04.314Z,5.80
2018-10-02T15:40:09.307Z,5.87
2018-10-02T15:45:14.686Z,5.83
2018-10-02T15:50:19.389Z,5.73
2018-10-02T15:55:23.830Z,5.73
2018-10-02T16:00:28.311Z,6.33
2018-10-02T16:05:32.885Z,6.13
2018-10-02T16:10:37.630Z,6.57
2018-10-02T16:15:44.166Z,5.87
2018-10-02T16:20:51.558Z,5.57
2018-10-02T16:25:55.874Z,5.90
2018-10-02T16:30:59.987Z,7.03
2018-10-02T16:36:03.999Z,7.33
2018-10-02T16:41:07.666Z,6.20
2018-10-02T16:46:12.004Z,6.23
2018-10-02T16:51:15.638Z,5.97
2018-10-02T16:56:19.837Z,6.20
2018-10-02T17:01:24.055Z,5.40
2018-10-02T17:06:28.505Z,5.10
2018-10-02T17:11:32.911Z,5.27
2018-10-02T17:16:37.819Z,5.20
2018-10-02T17:21:41.890Z,5.67
2018-10-02T17:26:46.502Z,4.50
2018-10-02T17:31:49.854Z,4.50
2018-10-02T17:36:53.353Z,4.87
2018-10-02T17:41:57.108Z,5.23
2018-10-02T17:47:00.690Z,5.33
2018-10-02T17:52:04.196Z,4.57
2018-10-02T17:57:07.808Z,5.07
2018-10-02T18:02:11.253Z,4.40
2018-10-02T18:07:14.708Z,4.70
2018-10-02T18:12:18.397Z,5.07
2018-10-02T18:17:21.855Z,5.30
2018-10-02T18:22:25.681Z,4.40
2018-10-02T18:27:29.558Z,4.57
2018-10-02T18:32:33.061Z,4.53
2018-10-02T18:37:36.555Z,4.33
2018-10-02T18:42:40.056Z,4.57
2018-10-02T18:47:43.518Z,5.23
2018-10-02T18:52:46.988Z,4.93
2018-10-02T18:57:50.503Z,4.47
2018-10-02T19:02:54.199Z,4.87
2018-10-02T19:07:57.771Z,3.97
2018-10-02T19:13:01.317Z,4.97
2018-10-02T19:18:04.817Z,4.10
2018-10-02T19:23:08.463Z,4.17
2018-10-02T19:28:11.984Z,4.23
2018-10-02T19:33:15.358Z,4.10
2018-10-02T19:38:24.316Z,4.10
2018-10-02T19:43:27.937Z,4.57
2018-10-02T19:48:31.453Z,4.27
2018-10-02T19:53:35.086Z,4.43
2018-10-02T19:58:38.739Z,4.67
2018-10-02T20:03:42.223Z,4.60
2018-10-02T20:08:45.667Z,4.87
2018-10-02T20:13:49.223Z,4.80
2018-10-02T20:18:52.547Z,5.07
2018-10-02T20:23:56.075Z,4.57
2018-10-02T20:29:00.095Z,5.57
2018-10-02T20:34:03.509Z,5.43
2018-10-02T20:39:09.191Z,5.20
2018-10-02T20:44:12.661Z,6.23
2018-10-02T20:49:16.380Z,5.43
2018-10-02T20:54:19.813Z,4.63
2018-10-02T20:59:23.510Z,5.63
2018-10-02T21:04:27.180Z,5.20
2018-10-02T21:09:30.541Z,5.53
2018-10-02T21:14:33.929Z,4.67
2018-10-02T21:19:37.404Z,4.77
2018-10-02T21:24:41.169Z,4.77
2018-10-02T21:29:45.121Z,4.50
2018-10-02T21:34:48.539Z,5.30
2018-10-02T21:39:52.033Z,3.70
2018-10-02T21:44:55.728Z,3.87
2018-10-02T21:49:59.430Z,4.53
2018-10-02T21:55:03.366Z,4.83
2018-10-02T22:00:08.431Z,3.90
2018-10-02T22:05:11.992Z,4.00
2018-10-02T22:10:15.444Z,4.10
2018-10-02T22:15:19.087Z,4.60
2018-10-02T22:20:22.912Z,4.03
2018-10-02T22:25:32.008Z,4.63
2018-10-02T22:30:35.467Z,4.43
2018-10-02T22:35:40.070Z,4.63
2018-10-02T22:40:43.742Z,4.37
2018-10-02T22:45:48.609Z,4.23
2018-10-02T22:50:52.172Z,4.57
2018-10-02T22:55:55.767Z,3.90
2018-10-02T23:00:59.233Z,3.80
2018-10-02T23:06:02.631Z,4.27
2018-10-02T23:11:06.235Z,4.10
2018-10-02T23:16:09.800Z,5.13
2018-10-02T23:21:13.223Z,3.63
2018-10-02T23:26:16.546Z,4.17
2018-10-02T23:31:19.984Z,4.57
2018-10-02T23:36:23.416Z,4.27
2018-10-02T23:41:26.834Z,4.73
2018-10-02T23:46:30.326Z,3.87
2018-10-02T23:51:33.918Z,4.00
2018-10-02T23:56:37.315Z,3.83
